sensor_id;sensor_type;location;lat;lon;timestamp;temperature;humidity
9772;DHT22;4925;52.588;13.370;2023-04-08T00:00:08;7.70;99.90
9772;DHT22;4925;52.588;13.370;2023-04-08T00:02:34;7.70;99.90
9772;DHT22;4925;52.588;13.370;2023-04-08T00:04:59;7.70;99.90
9772;DHT22;4925;52.588;13.370;2023-04-08T00:07:25;7.70;99.90
9772;DHT22;4925;52.588;13.370;2023-04-08T00:09:50;7.70;99.90
9772;DHT22;4925;52.588;13.370;2023-04-08T00:12:16;7.70;99.90
9772;DHT22;4925;52.588;13.370;2023-04-08T00:14:42;7.70;99.90
9772;DHT22;4925;52.588;13.370;2023-04-08T00:17:08;7.70;99.90
9772;DHT22;4925;52.588;13.370;2023-04-08T00:19:33;7.70;99.90
9772;DHT22;4925;52.588;13.370;2023-04-08T00:21:59;7.70;99.90
9772;DHT22;4925;52.588;13.370;2023-04-08T00:24:25;7.70;99.90
9772;DHT22;4925;52.588;13.370;2023-04-08T00:26:51;7.70;99.90
9772;DHT22;4925;52.588;13.370;2023-04-08T00:29:17;7.70;99.90
9772;DHT22;4925;52.588;13.370;2023-04-08T00:31:42;7.70;99.90
9772;DHT22;4925;52.588;13.370;2023-04-08T00:34:08;7.70;99.90
9772;DHT22;4925;52.588;13.370;2023-04-08T00:36:34;7.60;99.90
9772;DHT22;4925;52.588;13.370;2023-04-08T00:39:00;7.60;99.90
9772;DHT22;4925;52.588;13.370;2023-04-08T00:41:26;7.60;99.90
9772;DHT22;4925;52.588;13.370;2023-04-08T00:43:53;7.60;99.90
9772;DHT22;4925;52.588;13.370;2023-04-08T00:46:19;7.70;99.90
9772;DHT22;4925;52.588;13.370;2023-04-08T00:48:45;7.70;99.90
9772;DHT22;4925;52.588;13.370;2023-04-08T00:51:11;7.70;99.90
9772;DHT22;4925;52.588;13.370;2023-04-08T00:53:37;7.70;99.90
9772;DHT22;4925;52.588;13.370;2023-04-08T00:56:02;7.70;99.90
9772;DHT22;4925;52.588;13.370;2023-04-08T00:58:28;7.70;99.90
9772;DHT22;4925;52.588;13.370;2023-04-08T01:01:02;7.80;99.90
9772;DHT22;4925;52.588;13.370;2023-04-08T01:03:37;7.70;99.90
9772;DHT22;4925;52.588;13.370;2023-04-08T01:06:21;7.60;99.90
9772;DHT22;4925;52.588;13.370;2023-04-08T01:08:50;7.70;99.90
9772;DHT22;4925;52.588;13.370;2023-04-08T01:11:17;7.70;99.90
9772;DHT22;4925;52.588;13.370;2023-04-08T01:13:44;7.70;99.90
9772;DHT22;4925;52.588;13.370;2023-04-08T01:16:13;7.70;99.90
9772;DHT22;4925;52.588;13.370;2023-04-08T01:18:41;7.70;99.90
9772;DHT22;4925;52.588;13.370;2023-04-08T01:21:08;7.60;99.90
9772;DHT22;4925;52.588;13.370;2023-04-08T01:26:20;7.60;99.90
9772;DHT22;4925;52.588;13.370;2023-04-08T01:28:49;7.60;99.90
9772;DHT22;4925;52.588;13.370;2023-04-08T01:31:16;7.60;99.90
9772;DHT22;4925;52.588;13.370;2023-04-08T01:33:44;7.50;99.90
9772;DHT22;4925;52.588;13.370;2023-04-08T01:36:10;7.50;99.90
9772;DHT22;4925;52.588;13.370;2023-04-08T01:38:37;7.40;99.90
9772;DHT22;4925;52.588;13.370;2023-04-08T01:41:03;7.40;99.90
9772;DHT22;4925;52.588;13.370;2023-04-08T01:43:30;7.40;99.90
9772;DHT22;4925;52.588;13.370;2023-04-08T01:45:59;7.40;99.90
9772;DHT22;4925;52.588;13.370;2023-04-08T01:48:26;7.30;99.90
9772;DHT22;4925;52.588;13.370;2023-04-08T01:50:54;7.30;99.90
9772;DHT22;4925;52.588;13.370;2023-04-08T01:53:20;7.30;99.90
9772;DHT22;4925;52.588;13.370;2023-04-08T01:55:49;7.40;99.90
9772;DHT22;4925;52.588;13.370;2023-04-08T01:58:20;7.40;99.90
9772;DHT22;4925;52.588;13.370;2023-04-08T02:00:46;7.30;99.90
9772;DHT22;4925;52.588;13.370;2023-04-08T02:03:13;7.40;99.90
9772;DHT22;4925;52.588;13.370;2023-04-08T02:05:41;7.50;99.90
9772;DHT22;4925;52.588;13.370;2023-04-08T02:08:07;7.40;99.90
9772;DHT22;4925;52.588;13.370;2023-04-08T02:10:32;7.50;99.90
9772;DHT22;4925;52.588;13.370;2023-04-08T02:12:58;7.50;99.90
9772;DHT22;4925;52.588;13.370;2023-04-08T02:15:26;7.50;99.90
9772;DHT22;4925;52.588;13.370;2023-04-08T02:18:02;7.50;99.90
9772;DHT22;4925;52.588;13.370;2023-04-08T02:20:43;7.40;99.90
9772;DHT22;4925;52.588;13.370;2023-04-08T02:23:19;7.30;99.90
9772;DHT22;4925;52.588;13.370;2023-04-08T02:25:46;7.30;99.90
9772;DHT22;4925;52.588;13.370;2023-04-08T02:28:13;7.30;99.90
9772;DHT22;4925;52.588;13.370;2023-04-08T02:30:47;7.30;99.90
9772;DHT22;4925;52.588;13.370;2023-04-08T02:33:13;7.30;99.90
9772;DHT22;4925;52.588;13.370;2023-04-08T02:35:40;7.10;99.90
9772;DHT22;4925;52.588;13.370;2023-04-08T02:38:06;7.10;99.90
9772;DHT22;4925;52.588;13.370;2023-04-08T02:40:33;7.10;99.90
9772;DHT22;4925;52.588;13.370;2023-04-08T02:43:00;7.10;99.90
9772;DHT22;4925;52.588;13.370;2023-04-08T02:45:37;7.10;99.90
9772;DHT22;4925;52.588;13.370;2023-04-08T02:48:03;7.20;99.90
9772;DHT22;4925;52.588;13.370;2023-04-08T02:50:30;7.20;99.90
9772;DHT22;4925;52.588;13.370;2023-04-08T02:52:56;7.30;99.90
9772;DHT22;4925;52.588;13.370;2023-04-08T02:55:22;7.30;99.90
9772;DHT22;4925;52.588;13.370;2023-04-08T02:57:48;7.30;99.90
9772;DHT22;4925;52.588;13.370;2023-04-08T03:00:15;7.30;99.90
9772;DHT22;4925;52.588;13.370;2023-04-08T03:02:40;7.30;99.90
9772;DHT22;4925;52.588;13.370;2023-04-08T03:05:06;7.30;99.90
9772;DHT22;4925;52.588;13.370;2023-04-08T03:07:32;7.30;99.90
9772;DHT22;4925;52.588;13.370;2023-04-08T03:09:58;7.20;99.90
9772;DHT22;4925;52.588;13.370;2023-04-08T03:12:24;7.30;99.90
9772;DHT22;4925;52.588;13.370;2023-04-08T03:14:52;7.20;99.90
9772;DHT22;4925;52.588;13.370;2023-04-08T03:17:18;7.30;99.90
9772;DHT22;4925;52.588;13.370;2023-04-08T03:19:44;7.30;99.90
9772;DHT22;4925;52.588;13.370;2023-04-08T03:22:09;7.30;99.90
9772;DHT22;4925;52.588;13.370;2023-04-08T03:24:35;7.40;99.90
9772;DHT22;4925;52.588;13.370;2023-04-08T03:27:01;7.40;99.90
9772;DHT22;4925;52.588;13.370;2023-04-08T03:29:27;7.50;99.90
9772;DHT22;4925;52.588;13.370;2023-04-08T03:31:53;7.50;99.90
9772;DHT22;4925;52.588;13.370;2023-04-08T03:34:19;7.50;99.90
9772;DHT22;4925;52.588;13.370;2023-04-08T03:36:44;7.50;99.90
9772;DHT22;4925;52.588;13.370;2023-04-08T03:39:10;7.60;99.90
9772;DHT22;4925;52.588;13.370;2023-04-08T03:41:36;7.70;99.90
9772;DHT22;4925;52.588;13.370;2023-04-08T03:44:01;7.70;99.90
9772;DHT22;4925;52.588;13.370;2023-04-08T03:46:27;7.70;99.90
9772;DHT22;4925;52.588;13.370;2023-04-08T03:48:53;7.60;99.90
9772;DHT22;4925;52.588;13.370;2023-04-08T03:51:18;7.70;99.90
9772;DHT22;4925;52.588;13.370;2023-04-08T03:53:44;7.70;99.90
9772;DHT22;4925;52.588;13.370;2023-04-08T03:56:10;7.70;99.90
9772;DHT22;4925;52.588;13.370;2023-04-08T03:58:36;7.70;99.90
9772;DHT22;4925;52.588;13.370;2023-04-08T04:01:02;7.80;99.90
9772;DHT22;4925;52.588;13.370;2023-04-08T04:03:27;7.80;99.90
9772;DHT22;4925;52.588;13.370;2023-04-08T04:05:53;7.60;99.90
9772;DHT22;4925;52.588;13.370;2023-04-08T04:08:19;7.70;99.90
9772;DHT22;4925;52.588;13.370;2023-04-08T04:10:44;7.60;99.90
9772;DHT22;4925;52.588;13.370;2023-04-08T04:13:10;7.60;99.90
9772;DHT22;4925;52.588;13.370;2023-04-08T04:15:40;7.70;99.90
9772;DHT22;4925;52.588;13.370;2023-04-08T04:18:06;7.60;99.90
9772;DHT22;4925;52.588;13.370;2023-04-08T04:20:32;7.60;99.90
9772;DHT22;4925;52.588;13.370;2023-04-08T04:22:58;7.60;99.90
9772;DHT22;4925;52.588;13.370;2023-04-08T04:25:24;7.50;99.90
9772;DHT22;4925;52.588;13.370;2023-04-08T04:27:49;7.50;99.90
9772;DHT22;4925;52.588;13.370;2023-04-08T04:30:15;7.50;99.90
9772;DHT22;4925;52.588;13.370;2023-04-08T04:32:41;7.50;99.90
9772;DHT22;4925;52.588;13.370;2023-04-08T04:35:11;7.50;99.90
9772;DHT22;4925;52.588;13.370;2023-04-08T04:37:37;7.50;99.90
9772;DHT22;4925;52.588;13.370;2023-04-08T04:40:04;7.50;99.90
9772;DHT22;4925;52.588;13.370;2023-04-08T04:42:30;7.50;99.90
9772;DHT22;4925;52.588;13.370;2023-04-08T04:44:57;7.60;99.90
9772;DHT22;4925;52.588;13.370;2023-04-08T04:47:23;7.60;99.90
9772;DHT22;4925;52.588;13.370;2023-04-08T04:49:49;7.50;99.90
9772;DHT22;4925;52.588;13.370;2023-04-08T04:52:15;7.60;99.90
9772;DHT22;4925;52.588;13.370;2023-04-08T04:54:41;7.60;99.90
9772;DHT22;4925;52.588;13.370;2023-04-08T04:57:07;7.60;99.90
9772;DHT22;4925;52.588;13.370;2023-04-08T04:59:33;7.60;99.90
9772;DHT22;4925;52.588;13.370;2023-04-08T05:01:58;7.60;99.90
9772;DHT22;4925;52.588;13.370;2023-04-08T05:04:24;7.60;99.90
9772;DHT22;4925;52.588;13.370;2023-04-08T05:06:50;7.70;99.90
9772;DHT22;4925;52.588;13.370;2023-04-08T05:09:16;7.60;99.90
9772;DHT22;4925;52.588;13.370;2023-04-08T05:11:42;7.60;99.90
9772;DHT22;4925;52.588;13.370;2023-04-08T05:14:07;7.60;99.90
9772;DHT22;4925;52.588;13.370;2023-04-08T05:16:34;7.60;99.90
9772;DHT22;4925;52.588;13.370;2023-04-08T05:19:00;7.60;99.90
9772;DHT22;4925;52.588;13.370;2023-04-08T05:21:26;7.60;99.90
9772;DHT22;4925;52.588;13.370;2023-04-08T05:23:53;7.60;99.90
9772;DHT22;4925;52.588;13.370;2023-04-08T05:26:22;7.60;99.90
9772;DHT22;4925;52.588;13.370;2023-04-08T05:28:48;7.60;99.90
9772;DHT22;4925;52.588;13.370;2023-04-08T05:31:16;7.70;99.90
9772;DHT22;4925;52.588;13.370;2023-04-08T05:33:42;7.80;99.90
9772;DHT22;4925;52.588;13.370;2023-04-08T05:36:08;7.90;99.90
9772;DHT22;4925;52.588;13.370;2023-04-08T05:38:34;7.90;99.90
9772;DHT22;4925;52.588;13.370;2023-04-08T05:41:00;8.00;99.90
9772;DHT22;4925;52.588;13.370;2023-04-08T05:43:26;7.90;99.90
9772;DHT22;4925;52.588;13.370;2023-04-08T05:45:52;8.00;99.90
9772;DHT22;4925;52.588;13.370;2023-04-08T05:48:17;7.90;99.90
9772;DHT22;4925;52.588;13.370;2023-04-08T05:50:43;7.90;99.90
9772;DHT22;4925;52.588;13.370;2023-04-08T05:53:09;8.00;99.90
9772;DHT22;4925;52.588;13.370;2023-04-08T05:55:35;8.00;99.90
9772;DHT22;4925;52.588;13.370;2023-04-08T05:58:00;8.10;99.90
9772;DHT22;4925;52.588;13.370;2023-04-08T06:00:26;8.10;99.90
9772;DHT22;4925;52.588;13.370;2023-04-08T06:02:52;8.10;99.90
9772;DHT22;4925;52.588;13.370;2023-04-08T06:05:18;8.10;99.90
9772;DHT22;4925;52.588;13.370;2023-04-08T06:07:44;8.20;99.90
9772;DHT22;4925;52.588;13.370;2023-04-08T06:10:10;8.30;99.90
9772;DHT22;4925;52.588;13.370;2023-04-08T06:12:36;8.20;99.90
9772;DHT22;4925;52.588;13.370;2023-04-08T06:15:08;8.20;99.90
9772;DHT22;4925;52.588;13.370;2023-04-08T06:17:37;8.20;99.90
9772;DHT22;4925;52.588;13.370;2023-04-08T06:20:05;8.20;99.90
9772;DHT22;4925;52.588;13.370;2023-04-08T06:22:31;8.20;99.90
9772;DHT22;4925;52.588;13.370;2023-04-08T06:24:56;8.20;99.90
9772;DHT22;4925;52.588;13.370;2023-04-08T06:27:22;8.30;99.90
9772;DHT22;4925;52.588;13.370;2023-04-08T06:29:48;8.30;99.90
9772;DHT22;4925;52.588;13.370;2023-04-08T06:32:13;8.30;99.90
9772;DHT22;4925;52.588;13.370;2023-04-08T06:34:40;8.40;99.90
9772;DHT22;4925;52.588;13.370;2023-04-08T06:37:06;8.20;99.90
9772;DHT22;4925;52.588;13.370;2023-04-08T06:39:32;8.40;99.90
9772;DHT22;4925;52.588;13.370;2023-04-08T06:41:58;8.50;99.90
9772;DHT22;4925;52.588;13.370;2023-04-08T06:44:24;8.50;99.90
9772;DHT22;4925;52.588;13.370;2023-04-08T06:46:49;8.70;99.90
9772;DHT22;4925;52.588;13.370;2023-04-08T06:49:15;8.70;99.90
9772;DHT22;4925;52.588;13.370;2023-04-08T06:51:41;8.70;99.90
9772;DHT22;4925;52.588;13.370;2023-04-08T06:54:06;8.80;99.90
9772;DHT22;4925;52.588;13.370;2023-04-08T06:56:34;8.80;99.90
9772;DHT22;4925;52.588;13.370;2023-04-08T06:59:00;8.80;99.90
9772;DHT22;4925;52.588;13.370;2023-04-08T07:01:26;8.80;99.90
9772;DHT22;4925;52.588;13.370;2023-04-08T07:03:51;8.80;99.90
9772;DHT22;4925;52.588;13.370;2023-04-08T07:06:17;8.80;99.90
9772;DHT22;4925;52.588;13.370;2023-04-08T07:08:43;8.80;99.90
9772;DHT22;4925;52.588;13.370;2023-04-08T07:11:08;8.90;99.90
9772;DHT22;4925;52.588;13.370;2023-04-08T07:13:34;8.90;99.90
9772;DHT22;4925;52.588;13.370;2023-04-08T07:16:00;8.90;99.90
9772;DHT22;4925;52.588;13.370;2023-04-08T07:18:26;8.90;99.90
9772;DHT22;4925;52.588;13.370;2023-04-08T07:20:52;9.00;99.90
9772;DHT22;4925;52.588;13.370;2023-04-08T07:23:22;9.00;99.90
9772;DHT22;4925;52.588;13.370;2023-04-08T07:25:48;9.10;99.90
9772;DHT22;4925;52.588;13.370;2023-04-08T07:28:13;9.20;99.90
9772;DHT22;4925;52.588;13.370;2023-04-08T07:30:39;9.30;99.90
9772;DHT22;4925;52.588;13.370;2023-04-08T07:33:05;9.30;99.90
9772;DHT22;4925;52.588;13.370;2023-04-08T07:35:31;9.30;99.90
9772;DHT22;4925;52.588;13.370;2023-04-08T07:37:57;9.40;99.90
9772;DHT22;4925;52.588;13.370;2023-04-08T07:40:23;9.40;99.90
9772;DHT22;4925;52.588;13.370;2023-04-08T07:42:49;9.40;99.90
9772;DHT22;4925;52.588;13.370;2023-04-08T07:45:15;9.30;99.90
9772;DHT22;4925;52.588;13.370;2023-04-08T07:47:40;9.30;99.90
9772;DHT22;4925;52.588;13.370;2023-04-08T07:50:06;9.30;99.90
9772;DHT22;4925;52.588;13.370;2023-04-08T07:52:33;9.30;99.90
9772;DHT22;4925;52.588;13.370;2023-04-08T07:54:59;9.30;99.90
9772;DHT22;4925;52.588;13.370;2023-04-08T07:57:25;9.40;99.90
9772;DHT22;4925;52.588;13.370;2023-04-08T07:59:51;9.40;99.90
9772;DHT22;4925;52.588;13.370;2023-04-08T08:02:17;9.60;99.90
9772;DHT22;4925;52.588;13.370;2023-04-08T08:04:43;9.70;99.90
9772;DHT22;4925;52.588;13.370;2023-04-08T08:07:08;9.90;99.90
9772;DHT22;4925;52.588;13.370;2023-04-08T08:09:34;9.90;99.90
9772;DHT22;4925;52.588;13.370;2023-04-08T08:12:00;10.10;99.90
9772;DHT22;4925;52.588;13.370;2023-04-08T08:14:26;10.30;99.90
9772;DHT22;4925;52.588;13.370;2023-04-08T08:16:54;10.50;99.90
9772;DHT22;4925;52.588;13.370;2023-04-08T08:19:21;10.80;99.90
9772;DHT22;4925;52.588;13.370;2023-04-08T08:21:46;10.80;99.90
9772;DHT22;4925;52.588;13.370;2023-04-08T08:24:12;10.90;99.90
9772;DHT22;4925;52.588;13.370;2023-04-08T08:26:38;11.00;99.90
9772;DHT22;4925;52.588;13.370;2023-04-08T08:29:04;11.20;99.90
9772;DHT22;4925;52.588;13.370;2023-04-08T08:31:33;11.30;99.90
9772;DHT22;4925;52.588;13.370;2023-04-08T08:33:58;11.30;99.90
9772;DHT22;4925;52.588;13.370;2023-04-08T08:36:24;11.40;99.90
9772;DHT22;4925;52.588;13.370;2023-04-08T08:38:52;11.30;99.90
9772;DHT22;4925;52.588;13.370;2023-04-08T08:41:21;11.30;99.90
9772;DHT22;4925;52.588;13.370;2023-04-08T08:43:47;11.20;99.90
9772;DHT22;4925;52.588;13.370;2023-04-08T08:46:15;11.20;99.90
9772;DHT22;4925;52.588;13.370;2023-04-08T08:48:42;11.30;99.90
9772;DHT22;4925;52.588;13.370;2023-04-08T08:51:09;11.40;99.90
9772;DHT22;4925;52.588;13.370;2023-04-08T08:53:35;11.40;99.90
9772;DHT22;4925;52.588;13.370;2023-04-08T08:56:02;11.40;99.90
9772;DHT22;4925;52.588;13.370;2023-04-08T08:58:28;11.50;99.90
9772;DHT22;4925;52.588;13.370;2023-04-08T09:00:54;11.60;99.90
9772;DHT22;4925;52.588;13.370;2023-04-08T09:03:26;11.50;99.90
9772;DHT22;4925;52.588;13.370;2023-04-08T09:05:55;11.60;99.90
9772;DHT22;4925;52.588;13.370;2023-04-08T09:10:52;11.60;99.90
9772;DHT22;4925;52.588;13.370;2023-04-08T09:13:17;11.50;99.90
9772;DHT22;4925;52.588;13.370;2023-04-08T09:18:28;11.20;99.90
9772;DHT22;4925;52.588;13.370;2023-04-08T09:20:53;11.20;99.90
9772;DHT22;4925;52.588;13.370;2023-04-08T09:23:19;11.30;99.90
9772;DHT22;4925;52.588;13.370;2023-04-08T09:25:45;11.40;99.90
9772;DHT22;4925;52.588;13.370;2023-04-08T09:28:20;11.40;99.90
9772;DHT22;4925;52.588;13.370;2023-04-08T09:30:45;11.50;99.90
9772;DHT22;4925;52.588;13.370;2023-04-08T09:33:12;11.50;99.90
9772;DHT22;4925;52.588;13.370;2023-04-08T09:35:38;11.50;99.90
9772;DHT22;4925;52.588;13.370;2023-04-08T09:38:03;11.60;99.90
9772;DHT22;4925;52.588;13.370;2023-04-08T09:40:33;11.60;99.90
9772;DHT22;4925;52.588;13.370;2023-04-08T09:43:04;11.60;99.90
9772;DHT22;4925;52.588;13.370;2023-04-08T09:45:33;11.60;99.90
9772;DHT22;4925;52.588;13.370;2023-04-08T09:50:31;11.60;99.90
9772;DHT22;4925;52.588;13.370;2023-04-08T09:53:16;11.60;99.90
9772;DHT22;4925;52.588;13.370;2023-04-08T09:55:49;11.60;99.90
9772;DHT22;4925;52.588;13.370;2023-04-08T09:58:19;11.70;99.90
9772;DHT22;4925;52.588;13.370;2023-04-08T10:00:49;11.70;99.90
9772;DHT22;4925;52.588;13.370;2023-04-08T10:03:26;11.80;99.90
9772;DHT22;4925;52.588;13.370;2023-04-08T10:05:54;11.90;99.90
9772;DHT22;4925;52.588;13.370;2023-04-08T10:08:22;12.10;99.90
9772;DHT22;4925;52.588;13.370;2023-04-08T10:10:48;12.20;99.90
9772;DHT22;4925;52.588;13.370;2023-04-08T10:13:14;12.20;99.90
9772;DHT22;4925;52.588;13.370;2023-04-08T10:15:40;12.30;99.90
9772;DHT22;4925;52.588;13.370;2023-04-08T10:23:02;12.40;99.90
9772;DHT22;4925;52.588;13.370;2023-04-08T10:25:41;12.30;99.90
9772;DHT22;4925;52.588;13.370;2023-04-08T10:30:50;12.60;99.90
9772;DHT22;4925;52.588;13.370;2023-04-08T10:35:47;12.60;99.90
9772;DHT22;4925;52.588;13.370;2023-04-08T10:38:14;12.60;99.90
9772;DHT22;4925;52.588;13.370;2023-04-08T10:40:42;12.80;99.90
9772;DHT22;4925;52.588;13.370;2023-04-08T10:43:10;12.90;99.90
9772;DHT22;4925;52.588;13.370;2023-04-08T10:45:36;12.90;99.90
9772;DHT22;4925;52.588;13.370;2023-04-08T10:48:21;13.00;99.90
9772;DHT22;4925;52.588;13.370;2023-04-08T10:50:53;13.00;99.90
9772;DHT22;4925;52.588;13.370;2023-04-08T10:53:33;12.70;99.90
9772;DHT22;4925;52.588;13.370;2023-04-08T10:56:11;13.00;99.90
9772;DHT22;4925;52.588;13.370;2023-04-08T10:58:50;13.10;99.90
9772;DHT22;4925;52.588;13.370;2023-04-08T11:01:16;13.30;99.90
9772;DHT22;4925;52.588;13.370;2023-04-08T11:03:42;13.40;99.90
9772;DHT22;4925;52.588;13.370;2023-04-08T11:06:08;13.60;99.90
9772;DHT22;4925;52.588;13.370;2023-04-08T11:08:34;13.50;99.90
9772;DHT22;4925;52.588;13.370;2023-04-08T11:11:04;13.50;99.90
9772;DHT22;4925;52.588;13.370;2023-04-08T11:13:39;13.60;99.90
9772;DHT22;4925;52.588;13.370;2023-04-08T11:16:06;13.80;99.90
9772;DHT22;4925;52.588;13.370;2023-04-08T11:18:36;13.60;99.90
9772;DHT22;4925;52.588;13.370;2023-04-08T11:21:05;13.80;99.90
9772;DHT22;4925;52.588;13.370;2023-04-08T11:23:33;14.00;99.90
9772;DHT22;4925;52.588;13.370;2023-04-08T11:25:58;14.20;99.90
9772;DHT22;4925;52.588;13.370;2023-04-08T11:28:24;14.30;99.90
9772;DHT22;4925;52.588;13.370;2023-04-08T11:30:51;14.40;99.90
9772;DHT22;4925;52.588;13.370;2023-04-08T11:33:17;14.30;99.90
9772;DHT22;4925;52.588;13.370;2023-04-08T11:35:43;14.30;99.90
9772;DHT22;4925;52.588;13.370;2023-04-08T11:38:10;14.30;99.90
9772;DHT22;4925;52.588;13.370;2023-04-08T11:40:36;14.30;99.90
9772;DHT22;4925;52.588;13.370;2023-04-08T11:43:12;14.30;99.90
9772;DHT22;4925;52.588;13.370;2023-04-08T11:45:40;14.10;99.90
9772;DHT22;4925;52.588;13.370;2023-04-08T11:48:10;14.40;99.90
9772;DHT22;4925;52.588;13.370;2023-04-08T11:50:36;14.70;99.90
9772;DHT22;4925;52.588;13.370;2023-04-08T11:53:02;14.80;99.90
9772;DHT22;4925;52.588;13.370;2023-04-08T11:55:29;14.90;99.90
9772;DHT22;4925;52.588;13.370;2023-04-08T11:57:56;15.10;99.90
9772;DHT22;4925;52.588;13.370;2023-04-08T12:00:25;15.40;99.90
9772;DHT22;4925;52.588;13.370;2023-04-08T12:02:52;15.50;99.90
9772;DHT22;4925;52.588;13.370;2023-04-08T12:05:19;15.40;99.90
9772;DHT22;4925;52.588;13.370;2023-04-08T12:07:45;15.40;99.90
9772;DHT22;4925;52.588;13.370;2023-04-08T12:10:12;15.70;99.90
9772;DHT22;4925;52.588;13.370;2023-04-08T12:12:38;15.80;99.90
9772;DHT22;4925;52.588;13.370;2023-04-08T12:15:05;15.80;99.90
9772;DHT22;4925;52.588;13.370;2023-04-08T12:17:31;15.90;99.90
9772;DHT22;4925;52.588;13.370;2023-04-08T12:19:57;16.00;99.60
9772;DHT22;4925;52.588;13.370;2023-04-08T12:22:23;15.80;99.90
9772;DHT22;4925;52.588;13.370;2023-04-08T12:24:48;15.80;99.90
9772;DHT22;4925;52.588;13.370;2023-04-08T12:27:14;16.00;99.90
9772;DHT22;4925;52.588;13.370;2023-04-08T12:29:40;16.20;99.80
9772;DHT22;4925;52.588;13.370;2023-04-08T12:32:06;16.00;99.90
9772;DHT22;4925;52.588;13.370;2023-04-08T12:34:32;15.90;99.90
9772;DHT22;4925;52.588;13.370;2023-04-08T12:36:58;15.80;99.90
9772;DHT22;4925;52.588;13.370;2023-04-08T12:39:24;15.90;99.90
9772;DHT22;4925;52.588;13.370;2023-04-08T12:41:50;15.90;99.90
9772;DHT22;4925;52.588;13.370;2023-04-08T12:44:15;15.90;99.90
9772;DHT22;4925;52.588;13.370;2023-04-08T12:46:41;16.00;99.90
9772;DHT22;4925;52.588;13.370;2023-04-08T12:49:07;16.00;99.90
9772;DHT22;4925;52.588;13.370;2023-04-08T12:51:33;15.90;99.90
9772;DHT22;4925;52.588;13.370;2023-04-08T12:54:03;15.80;99.90
9772;DHT22;4925;52.588;13.370;2023-04-08T12:56:30;15.50;99.90
9772;DHT22;4925;52.588;13.370;2023-04-08T12:58:56;15.40;99.90
9772;DHT22;4925;52.588;13.370;2023-04-08T13:01:22;15.60;99.90
9772;DHT22;4925;52.588;13.370;2023-04-08T13:03:48;16.20;99.90
9772;DHT22;4925;52.588;13.370;2023-04-08T13:06:14;16.40;99.40
9772;DHT22;4925;52.588;13.370;2023-04-08T13:08:40;16.60;99.70
9772;DHT22;4925;52.588;13.370;2023-04-08T13:11:06;16.70;98.50
9772;DHT22;4925;52.588;13.370;2023-04-08T13:13:32;16.60;96.70
9772;DHT22;4925;52.588;13.370;2023-04-08T13:15:58;16.70;94.80
9772;DHT22;4925;52.588;13.370;2023-04-08T13:18:23;17.00;94.30
9772;DHT22;4925;52.588;13.370;2023-04-08T13:20:49;17.10;93.50
9772;DHT22;4925;52.588;13.370;2023-04-08T13:23:15;17.50;92.90
9772;DHT22;4925;52.588;13.370;2023-04-08T13:25:42;17.70;91.10
9772;DHT22;4925;52.588;13.370;2023-04-08T13:28:10;18.00;90.50
9772;DHT22;4925;52.588;13.370;2023-04-08T13:30:36;18.30;90.60
9772;DHT22;4925;52.588;13.370;2023-04-08T13:33:02;18.80;89.90
9772;DHT22;4925;52.588;13.370;2023-04-08T13:35:27;19.00;89.20
9772;DHT22;4925;52.588;13.370;2023-04-08T13:37:53;19.00;89.40
9772;DHT22;4925;52.588;13.370;2023-04-08T13:40:19;18.70;90.10
9772;DHT22;4925;52.588;13.370;2023-04-08T13:42:45;18.80;90.50
9772;DHT22;4925;52.588;13.370;2023-04-08T13:45:12;19.10;90.20
9772;DHT22;4925;52.588;13.370;2023-04-08T13:47:38;19.40;86.50
9772;DHT22;4925;52.588;13.370;2023-04-08T13:50:05;19.40;84.40
9772;DHT22;4925;52.588;13.370;2023-04-08T13:52:31;19.80;85.60
9772;DHT22;4925;52.588;13.370;2023-04-08T13:54:57;20.20;81.70
9772;DHT22;4925;52.588;13.370;2023-04-08T13:57:23;20.30;79.90
9772;DHT22;4925;52.588;13.370;2023-04-08T13:59:48;20.50;76.60
9772;DHT22;4925;52.588;13.370;2023-04-08T14:02:14;20.50;76.70
9772;DHT22;4925;52.588;13.370;2023-04-08T14:04:40;20.70;74.50
9772;DHT22;4925;52.588;13.370;2023-04-08T14:07:06;20.90;74.10
9772;DHT22;4925;52.588;13.370;2023-04-08T14:09:31;20.70;73.90
9772;DHT22;4925;52.588;13.370;2023-04-08T14:11:58;20.10;75.40
9772;DHT22;4925;52.588;13.370;2023-04-08T14:14:23;20.30;75.60
9772;DHT22;4925;52.588;13.370;2023-04-08T14:16:49;20.80;71.80
9772;DHT22;4925;52.588;13.370;2023-04-08T14:19:15;20.80;71.00
9772;DHT22;4925;52.588;13.370;2023-04-08T14:21:41;20.80;69.50
9772;DHT22;4925;52.588;13.370;2023-04-08T14:24:06;20.60;68.60
9772;DHT22;4925;52.588;13.370;2023-04-08T14:26:32;20.60;68.10
9772;DHT22;4925;52.588;13.370;2023-04-08T14:29:02;20.60;67.20
9772;DHT22;4925;52.588;13.370;2023-04-08T14:31:29;20.60;67.50
9772;DHT22;4925;52.588;13.370;2023-04-08T14:33:55;20.80;65.80
9772;DHT22;4925;52.588;13.370;2023-04-08T14:36:21;20.50;64.70
9772;DHT22;4925;52.588;13.370;2023-04-08T14:38:49;20.10;65.30
9772;DHT22;4925;52.588;13.370;2023-04-08T14:41:14;19.70;67.40
9772;DHT22;4925;52.588;13.370;2023-04-08T14:43:40;19.20;68.70
9772;DHT22;4925;52.588;13.370;2023-04-08T14:46:06;18.80;69.40
9772;DHT22;4925;52.588;13.370;2023-04-08T14:48:32;18.60;70.20
9772;DHT22;4925;52.588;13.370;2023-04-08T14:50:57;18.60;70.70
9772;DHT22;4925;52.588;13.370;2023-04-08T14:53:24;18.60;70.00
9772;DHT22;4925;52.588;13.370;2023-04-08T14:55:50;18.70;72.30
9772;DHT22;4925;52.588;13.370;2023-04-08T14:58:16;19.10;72.20
9772;DHT22;4925;52.588;13.370;2023-04-08T15:00:42;19.40;69.40
9772;DHT22;4925;52.588;13.370;2023-04-08T15:03:10;19.50;69.50
9772;DHT22;4925;52.588;13.370;2023-04-08T15:05:38;19.30;67.40
9772;DHT22;4925;52.588;13.370;2023-04-08T15:08:04;19.00;69.40
9772;DHT22;4925;52.588;13.370;2023-04-08T15:10:30;19.10;69.00
9772;DHT22;4925;52.588;13.370;2023-04-08T15:12:57;19.00;70.20
9772;DHT22;4925;52.588;13.370;2023-04-08T15:15:22;18.80;70.80
9772;DHT22;4925;52.588;13.370;2023-04-08T15:17:48;18.60;70.30
9772;DHT22;4925;52.588;13.370;2023-04-08T15:20:14;18.40;71.50
9772;DHT22;4925;52.588;13.370;2023-04-08T15:22:40;18.20;73.50
9772;DHT22;4925;52.588;13.370;2023-04-08T15:25:06;17.90;73.30
9772;DHT22;4925;52.588;13.370;2023-04-08T15:27:32;17.70;72.90
9772;DHT22;4925;52.588;13.370;2023-04-08T15:29:58;17.60;73.90
9772;DHT22;4925;52.588;13.370;2023-04-08T15:32:24;17.40;74.20
9772;DHT22;4925;52.588;13.370;2023-04-08T15:34:50;17.40;75.20
9772;DHT22;4925;52.588;13.370;2023-04-08T15:37:17;17.20;75.30
9772;DHT22;4925;52.588;13.370;2023-04-08T15:39:42;17.40;75.50
9772;DHT22;4925;52.588;13.370;2023-04-08T15:42:08;17.60;74.80
9772;DHT22;4925;52.588;13.370;2023-04-08T15:44:34;17.80;75.20
9772;DHT22;4925;52.588;13.370;2023-04-08T15:46:59;17.90;74.20
9772;DHT22;4925;52.588;13.370;2023-04-08T15:49:26;17.80;74.80
9772;DHT22;4925;52.588;13.370;2023-04-08T15:51:52;18.10;74.20
9772;DHT22;4925;52.588;13.370;2023-04-08T15:54:18;18.30;75.00
9772;DHT22;4925;52.588;13.370;2023-04-08T15:56:45;18.20;74.20
9772;DHT22;4925;52.588;13.370;2023-04-08T15:59:11;18.00;75.50
9772;DHT22;4925;52.588;13.370;2023-04-08T16:01:37;18.00;75.30
9772;DHT22;4925;52.588;13.370;2023-04-08T16:04:03;18.00;76.80
9772;DHT22;4925;52.588;13.370;2023-04-08T16:06:29;17.70;77.00
9772;DHT22;4925;52.588;13.370;2023-04-08T16:08:55;17.70;78.10
9772;DHT22;4925;52.588;13.370;2023-04-08T16:11:21;17.60;77.70